Time;durP1;ratioP1;P1;durP2;ratioP2;P2;SDS_P1;SDS_P2;PMS_P1;PMS_P2;Temp;Humidity;BMP_temperature;BMP_pressure;BME280_temperature;BME280_humidity;BME280_pressure;Samples;Min_cycle;Max_cycle;Signal;HPM_P1;HPM_P2
2023/04/29 00:01:28;;;;;;;101.07;40.70;;;12.70;99.90;;;;;;4156253;28;20286;-96
2023/04/29 00:04:19;;;;;;;101.50;43.85;;;12.90;99.90;;;;;;4177193;28;20183;-96
2023/04/29 00:07:18;;;;;;;114.30;43.90;;;12.70;99.90;;;;;;4179635;28;20210;-93
2023/04/29 00:09:36;;;;;;;109.38;43.63;;;12.70;99.90;;;;;;4185509;28;20724;-96
2023/04/29 00:12:02;;;;;;;122.10;45.08;;;12.50;99.90;;;;;;4184712;28;20266;-94
2023/04/29 00:14:09;;;;;;;121.13;46.15;;;12.50;99.90;;;;;;4170606;28;20196;-95
2023/04/29 00:16:13;;;;;;;133.20;50.20;;;12.40;99.90;;;;;;4153812;28;20316;-95
2023/04/29 00:18:18;;;;;;;131.85;51.35;;;12.30;99.90;;;;;;4158878;28;20168;-93
2023/04/29 00:20:24;;;;;;;131.18;50.10;;;12.40;99.90;;;;;;4173510;28;20169;-95
2023/04/29 00:22:32;;;;;;;131.15;48.17;;;12.30;99.90;;;;;;4171492;28;20172;-95
2023/04/29 00:25:02;;;;;;;121.40;45.90;;;12.10;99.90;;;;;;4169252;28;20176;-94
2023/04/29 00:27:16;;;;;;;120.20;43.75;;;12.00;99.90;;;;;;4173303;28;20176;-93
2023/04/29 00:29:24;;;;;;;110.43;43.70;;;12.00;99.90;;;;;;4157211;28;20184;-96
2023/04/29 00:31:53;;;;;;;96.05;40.92;;;11.90;99.90;;;;;;4174553;28;20219;-95
2023/04/29 00:34:29;;;;;;;111.22;41.60;;;11.70;99.90;;;;;;4183343;28;20215;-96
2023/04/29 00:37:02;;;;;;;103.00;39.72;;;11.60;99.90;;;;;;4174266;28;20204;-94
2023/04/29 00:39:16;;;;;;;99.13;39.83;;;11.70;99.90;;;;;;4173651;28;20188;-95
2023/04/29 00:41:25;;;;;;;90.32;36.67;;;11.90;99.90;;;;;;4174054;28;20168;-95
2023/04/29 00:44:10;;;;;;;88.35;33.85;;;11.90;99.90;;;;;;4179963;28;20203;-94
2023/04/29 00:46:12;;;;;;;94.65;37.65;;;11.50;99.90;;;;;;4156870;28;20209;-94
2023/04/29 00:48:50;;;;;;;96.38;36.72;;;11.50;99.90;;;;;;4155180;28;20173;-95
2023/04/29 00:50:57;;;;;;;91.68;36.33;;;11.70;99.90;;;;;;4193184;28;20203;-95
2023/04/29 00:53:19;;;;;;;83.63;35.13;;;11.80;99.90;;;;;;4224537;23;20207;-94
2023/04/29 00:55:56;;;;;;;89.05;33.92;;;12.00;99.90;;;;;;4150476;28;20313;-94
2023/04/29 00:58:08;;;;;;;73.18;29.73;;;12.10;99.90;;;;;;4169836;28;20251;-96
2023/04/29 01:00:37;;;;;;;67.57;29.50;;;11.90;99.90;;;;;;4136185;28;20253;-96
2023/04/29 01:03:19;;;;;;;49.67;23.30;;;11.90;99.90;;;;;;4169048;28;20542;-95
2023/04/29 01:05:24;;;;;;;51.45;25.38;;;11.70;99.90;;;;;;4130307;28;20241;-95
2023/04/29 01:08:11;;;;;;;49.67;24.45;;;11.60;99.90;;;;;;4155313;28;20284;-94
2023/04/29 01:10:53;;;;;;;51.50;24.75;;;11.70;99.90;;;;;;4139438;28;20281;-94
2023/04/29 01:13:19;;;;;;;58.70;28.70;;;11.70;99.90;;;;;;4123559;28;20285;-95
2023/04/29 01:15:38;;;;;;;47.72;23.88;;;11.90;99.90;;;;;;4139523;28;20215;-95
2023/04/29 01:18:29;;;;;;;47.10;22.50;;;12.10;99.90;;;;;;4158169;28;20235;-96
2023/04/29 01:21:12;;;;;;;54.05;25.45;;;12.10;99.90;;;;;;4157451;28;20168;-95
2023/04/29 01:23:15;;;;;;;49.63;25.05;;;12.00;99.90;;;;;;4122535;28;20206;-95
2023/04/29 01:25:16;;;;;;;52.80;25.13;;;11.80;99.90;;;;;;4120433;28;20175;-95
2023/04/29 01:28:24;;;;;;;62.10;27.92;;;11.70;99.90;;;;;;4129004;28;20704;-94
2023/04/29 01:30:54;;;;;;;53.75;25.60;;;12.00;99.90;;;;;;4129958;28;20229;-93
2023/04/29 01:34:12;;;;;;;59.78;29.80;;;11.90;99.90;;;;;;4154543;28;20235;-94
2023/04/29 01:37:07;;;;;;;63.75;28.35;;;11.80;99.90;;;;;;4157729;28;20219;-94
2023/04/29 01:39:45;;;;;;;56.10;27.52;;;11.80;99.90;;;;;;4124300;28;20594;-96
2023/04/29 01:42:22;;;;;;;74.35;31.83;;;11.70;99.90;;;;;;4159500;28;20211;-94
2023/04/29 01:44:48;;;;;;;75.38;33.33;;;11.40;99.90;;;;;;4137728;28;20229;-95
2023/04/29 01:47:46;;;;;;;101.00;39.75;;;11.50;99.90;;;;;;4152225;28;20169;-95
2023/04/29 01:49:53;;;;;;;82.93;36.65;;;11.50;99.90;;;;;;4139712;28;20165;-96
2023/04/29 01:52:30;;;;;;;89.53;37.85;;;11.60;99.90;;;;;;4120799;28;20182;-95
2023/04/29 01:54:55;;;;;;;84.53;36.78;;;11.30;99.90;;;;;;4119249;28;20281;-95
2023/04/29 01:57:18;;;;;;;75.07;32.25;;;11.20;99.90;;;;;;4136103;28;20196;-95
2023/04/29 01:59:50;;;;;;;72.22;30.27;;;11.20;99.90;;;;;;4134286;28;20208;-95
2023/04/29 02:02:09;;;;;;;55.28;26.50;;;11.30;99.90;;;;;;4138219;28;20273;-95
2023/04/29 02:07:22;;;;;;;43.83;22.48;;;11.50;99.90;;;;;;4153840;28;20649;-95
2023/04/29 02:09:52;;;;;;;46.38;21.10;;;11.50;99.90;;;;;;4217602;23;20275;-95
2023/04/29 02:12:24;;;;;;;46.55;20.77;;;11.40;99.90;;;;;;4173072;28;20179;-96
2023/04/29 02:14:41;;;;;;;43.78;21.17;;;11.40;99.90;;;;;;4172502;28;20596;-95
2023/04/29 02:16:49;;;;;;;42.33;20.08;;;11.40;99.90;;;;;;4168507;28;20152;-95
2023/04/29 02:19:31;;;;;;;40.13;19.92;;;11.30;99.90;;;;;;4169310;28;20176;-96
2023/04/29 02:22:14;;;;;;;;;;;;;;;;;;;;;
2023/04/29 02:24:51;;;;;;;57.15;25.70;;;11.70;99.90;;;;;;4173282;28;20196;-95
2023/04/29 02:27:57;;;;;;;58.72;28.90;;;11.90;99.90;;;;;;4189665;28;20178;-94
2023/04/29 02:30:48;;;;;;;53.20;27.83;;;12.00;99.90;;;;;;4157656;28;20536;-96
2023/04/29 02:33:10;;;;;;;;;;;;;;;;;;;;;
2023/04/29 02:36:12;;;;;;;;;;;;;;;;;;;;;
2023/04/29 02:39:10;;;;;;;68.03;32.28;;;11.90;99.90;;;;;;4080311;29;20164;-96
2023/04/29 02:44:26;;;;;;;52.03;29.95;;;11.70;99.90;;;;;;4161902;28;20196;-95
2023/04/29 02:46:44;;;;;;;57.75;32.03;;;11.60;99.90;;;;;;4140206;28;20193;-95
2023/04/29 02:50:04;;;;;;;58.78;33.10;;;11.60;99.90;;;;;;4171786;28;20168;-96
2023/04/29 02:52:17;;;;;;;60.58;34.08;;;11.60;99.90;;;;;;4163055;28;20180;-96
2023/04/29 02:54:45;;;;;;;48.22;26.25;;;11.70;99.90;;;;;;4156754;28;20232;-95
2023/04/29 02:57:45;;;;;;;51.70;27.17;;;11.50;99.90;;;;;;4136233;28;20590;-94
2023/04/29 03:00:08;;;;;;;45.72;26.08;;;11.50;99.90;;;;;;4152833;28;20196;-95
2023/04/29 03:02:16;;;;;;;47.42;25.83;;;11.50;99.90;;;;;;4137208;28;20237;-94
2023/04/29 03:07:19;;;;;;;41.45;25.15;;;11.90;99.90;;;;;;4159763;28;20218;-96
2023/04/29 03:09:26;;;;;;;42.22;25.48;;;12.20;99.90;;;;;;4136343;28;20193;-95
2023/04/29 03:12:06;;;;;;;41.95;23.73;;;12.10;99.90;;;;;;4153699;28;20271;-95
2023/04/29 03:14:40;;;;;;;44.60;25.08;;;11.80;99.90;;;;;;4175960;28;20195;-95
2023/04/29 03:16:49;;;;;;;43.17;24.92;;;11.70;99.90;;;;;;4175518;28;20194;-95
2023/04/29 03:22:08;;;;;;;46.75;23.50;;;11.90;99.90;;;;;;4178593;28;20179;-95
2023/04/29 03:24:10;;;;;;;36.55;21.67;;;11.50;99.90;;;;;;4140519;28;20205;-94
2023/04/29 03:26:13;;;;;;;38.95;21.55;;;11.50;99.90;;;;;;4175448;28;20340;-95
2023/04/29 03:28:24;;;;;;;33.10;21.67;;;11.40;99.90;;;;;;4158849;28;20173;-95
2023/04/29 03:30:30;;;;;;;43.30;20.35;;;11.20;99.90;;;;;;4176560;28;20167;-95
2023/04/29 03:32:34;;;;;;;37.27;20.67;;;11.20;99.90;;;;;;4140656;28;20280;-96
2023/04/29 03:34:37;;;;;;;36.25;19.95;;;11.00;99.90;;;;;;4138961;28;20204;-94
2023/04/29 03:37:14;;;;;;;26.63;15.90;;;11.00;99.90;;;;;;4076361;29;20278;-94
2023/04/29 03:39:45;;;;;;;;;;;;;;;;;;;;;
2023/04/29 03:41:57;;;;;;;31.70;15.90;;;11.20;99.90;;;;;;4143390;28;20197;-93
2023/04/29 03:44:08;;;;;;;27.17;14.83;;;11.10;99.90;;;;;;4140093;28;20201;-95
2023/04/29 03:46:25;;;;;;;28.40;15.32;;;10.90;99.90;;;;;;4141734;28;20184;-94
2023/04/29 03:48:31;;;;;;;24.67;14.50;;;10.90;99.90;;;;;;4155364;28;20645;-96
2023/04/29 03:50:38;;;;;;;26.77;14.60;;;11.00;99.90;;;;;;4140152;28;20284;-95
2023/04/29 03:52:44;;;;;;;27.42;15.50;;;10.90;99.90;;;;;;4142086;28;20154;-93
2023/04/29 03:54:53;;;;;;;25.70;14.97;;;11.20;99.90;;;;;;4154960;28;20211;-96
2023/04/29 03:57:00;;;;;;;28.42;14.88;;;11.50;99.90;;;;;;4129104;28;20696;-96
2023/04/29 03:59:55;;;;;;;29.67;16.13;;;11.60;99.90;;;;;;4158814;28;20181;-95
2023/04/29 04:01:52;;;;;;;30.02;16.02;;;11.50;99.90;;;;;;4147825;28;20203;-95
2023/04/29 04:04:04;;;;;;;33.20;16.60;;;11.40;99.90;;;;;;4138295;28;20216;-93
2023/04/29 04:06:17;;;;;;;33.95;16.98;;;11.20;99.90;;;;;;4122593;28;20178;-96
2023/04/29 04:08:28;;;;;;;31.85;16.15;;;11.10;99.90;;;;;;4156529;28;20196;-95
2023/04/29 04:11:17;;;;;;;32.38;17.33;;;11.00;99.90;;;;;;4156370;28;20161;-94
2023/04/29 04:13:31;;;;;;;41.45;17.58;;;11.40;99.90;;;;;;4142981;28;20230;-95
2023/04/29 04:15:37;;;;;;;35.45;19.58;;;11.30;99.90;;;;;;4152742;28;20210;-94
2023/04/29 04:18:06;;;;;;;34.67;18.60;;;11.20;99.90;;;;;;4350963;22;20207;-94
2023/04/29 04:20:50;;;;;;;35.85;19.98;;;11.80;99.90;;;;;;4176408;28;20576;-95
2023/04/29 04:22:57;;;;;;;48.92;21.40;;;11.90;99.90;;;;;;4155044;28;20632;-92
2023/04/29 04:25:56;;;;;;;38.67;21.23;;;11.40;99.90;;;;;;4174719;28;20161;-96
2023/04/29 04:29:06;;;;;;;43.33;20.60;;;11.10;99.90;;;;;;4178079;28;20195;-95
2023/04/29 04:31:07;;;;;;;41.90;21.13;;;10.90;99.90;;;;;;4169878;28;20184;-95
2023/04/29 04:33:18;;;;;;;37.25;20.02;;;11.30;99.90;;;;;;4170939;28;20664;-94
2023/04/29 04:35:27;;;;;;;40.92;19.67;;;11.30;99.90;;;;;;4169897;28;20211;-93
2023/04/29 04:37:31;;;;;;;40.25;19.67;;;11.20;99.90;;;;;;4170830;28;20191;-94
2023/04/29 04:39:57;;;;;;;31.58;17.73;;;10.90;99.90;;;;;;4171350;28;20215;-94
2023/04/29 04:42:33;;;;;;;37.35;18.35;;;10.70;99.90;;;;;;4183692;28;20635;-94
2023/04/29 04:44:45;;;;;;;38.45;17.92;;;10.80;99.90;;;;;;4169585;28;20200;-94
2023/04/29 04:46:55;;;;;;;28.05;16.58;;;10.90;99.90;;;;;;4154584;28;20260;-94
2023/04/29 04:49:37;;;;;;;33.75;15.32;;;11.10;99.90;;;;;;4172534;28;20276;-94
2023/04/29 04:51:51;;;;;;;31.13;16.70;;;11.10;99.90;;;;;;4172952;28;20161;-94
2023/04/29 04:53:55;;;;;;;35.08;17.30;;;11.10;99.90;;;;;;4154134;28;20240;-95
2023/04/29 04:56:07;;;;;;;32.38;17.55;;;11.20;99.90;;;;;;4153856;28;20247;-95
2023/04/29 04:58:13;;;;;;;33.42;17.02;;;11.40;99.90;;;;;;4168747;28;20176;-95
2023/04/29 05:00:18;;;;;;;36.67;17.52;;;11.80;99.90;;;;;;4154701;28;20161;-94
2023/04/29 05:02:22;;;;;;;28.30;15.75;;;11.80;99.90;;;;;;4172096;28;20178;-94
2023/04/29 05:04:51;;;;;;;34.10;16.57;;;11.50;99.90;;;;;;4160079;28;20287;-93
2023/04/29 05:07:10;;;;;;;26.38;15.57;;;11.30;99.90;;;;;;4188300;28;20180;-95
2023/04/29 05:09:40;;;;;;;26.53;12.50;;;11.20;99.90;;;;;;4148654;28;20255;-94
2023/04/29 05:11:47;;;;;;;20.80;12.43;;;10.70;99.90;;;;;;4172290;28;20183;-93
2023/04/29 05:13:54;;;;;;;21.77;12.73;;;10.70;99.90;;;;;;4176489;28;20199;-96
2023/04/29 05:16:01;;;;;;;19.87;12.53;;;10.80;99.90;;;;;;4160354;28;20213;-94
2023/04/29 05:18:13;;;;;;;19.10;12.27;;;10.90;99.90;;;;;;4136829;28;20213;-95
2023/04/29 05:20:52;;;;;;;18.88;10.98;;;11.00;99.90;;;;;;4141523;28;20186;-94
2023/04/29 05:23:01;;;;;;;16.67;10.43;;;10.60;99.90;;;;;;4172574;28;20188;-95
2023/04/29 05:25:21;;;;;;;20.60;11.75;;;10.60;99.90;;;;;;4188643;28;20194;-95
2023/04/29 05:27:29;;;;;;;21.23;12.00;;;10.90;99.90;;;;;;4156677;28;20175;-94
2023/04/29 05:29:33;;;;;;;24.70;12.98;;;11.30;99.90;;;;;;4156100;28;20181;-95
2023/04/29 05:34:45;;;;;;;21.70;12.75;;;11.00;99.90;;;;;;4190084;28;20275;-94
2023/04/29 05:36:47;;;;;;;35.95;15.15;;;11.10;99.90;;;;;;4171469;28;20172;-95
2023/04/29 05:38:49;;;;;;;28.00;14.50;;;11.10;99.90;;;;;;4153822;28;20196;-94
2023/04/29 05:41:00;;;;;;;27.07;15.23;;;10.90;99.90;;;;;;4154795;28;20260;-96
2023/04/29 05:43:56;;;;;;;31.80;16.07;;;11.20;99.90;;;;;;4137533;28;20198;-96
2023/04/29 05:46:09;;;;;;;29.77;16.93;;;11.00;99.90;;;;;;4127224;28;20190;-96
2023/04/29 05:48:14;;;;;;;26.87;15.80;;;10.80;99.90;;;;;;4123865;28;20657;-96
2023/04/29 05:50:39;;;;;;;28.23;17.67;;;10.60;99.90;;;;;;4108120;29;20237;-94
2023/04/29 05:53:17;;;;;;;27.63;16.97;;;10.50;99.90;;;;;;4124147;28;20883;-95
2023/04/29 05:55:34;;;;;;;;;;;;;;;;;;;;;
2023/04/29 05:57:41;;;;;;;32.33;18.17;;;10.70;99.90;;;;;;4142804;28;20244;-94
2023/04/29 05:59:58;;;;;;;36.37;20.10;;;10.50;99.90;;;;;;4158486;28;20248;-94
2023/04/29 06:02:50;;;;;;;38.73;19.63;;;10.50;99.90;;;;;;4159595;28;20188;-95
2023/04/29 06:05:50;;;;;;;36.00;18.90;;;10.40;99.90;;;;;;4124136;28;20170;-95
2023/04/29 06:08:36;;;;;;;;;;;;;;;;;;;;;
2023/04/29 06:11:19;;;;;;;37.17;20.87;;;10.40;99.90;;;;;;4192713;28;20178;-94
2023/04/29 06:20:33;;;;;;;30.93;17.67;;;10.30;99.90;;;;;;4165663;28;20192;-91
2023/04/29 06:22:37;;;;;;;47.22;20.58;;;10.50;99.90;;;;;;4156212;28;20200;-96
2023/04/29 06:25:01;;;;;;;39.63;20.80;;;10.60;99.90;;;;;;4171270;28;20168;-94
2023/04/29 06:28:37;;;;;;;38.20;20.97;;;10.50;99.90;;;;;;4177209;28;20222;-95
2023/04/29 06:31:29;;;;;;;40.47;19.57;;;10.50;99.90;;;;;;4156216;28;20176;-96
2023/04/29 06:36:33;;;;;;;43.33;19.20;;;10.70;99.90;;;;;;4124371;28;20205;-96
2023/04/29 06:38:55;;;;;;;33.70;19.07;;;10.80;99.90;;;;;;4172394;28;20179;-94
2023/04/29 06:41:39;;;;;;;36.67;19.73;;;10.80;99.90;;;;;;4174004;28;20244;-94
2023/04/29 06:45:17;;;;;;;38.70;19.17;;;10.70;99.90;;;;;;4152863;28;20214;-95
2023/04/29 06:48:02;;;;;;;38.30;18.77;;;10.90;99.90;;;;;;4115636;28;20275;-95
2023/04/29 06:51:10;;;;;;;39.93;20.07;;;10.60;99.90;;;;;;4156918;28;20197;-95
2023/04/29 06:55:51;;;;;;;;;;;;;;;;;;;;;
2023/04/29 07:02:30;;;;;;;36.37;20.10;;;10.90;99.90;;;;;;4137817;28;20200;-95
2023/04/29 07:05:28;;;;;;;36.90;20.23;;;11.00;99.90;;;;;;4087692;29;20278;-95
2023/04/29 07:22:33;;;;;;;34.40;18.23;;;11.90;99.90;;;;;;4166228;28;20207;-95
2023/04/29 07:29:14;;;;;;;37.28;18.80;;;12.30;99.90;;;;;;4250867;22;20341;-96
2023/04/29 07:37:57;;;;;;;;;;;;;;;;;;;;;
2023/04/29 07:40:28;;;;;;;36.15;18.20;;;11.30;99.90;;;;;;4187856;28;20270;-96
2023/04/29 07:42:50;;;;;;;;;;;;;;;;;;;;;
2023/04/29 07:45:22;;;;;;;33.38;17.92;;;12.20;99.90;;;;;;4173713;28;20199;-95
2023/04/29 07:53:33;;;;;;;;;;;;;;;;;;;;;
2023/04/29 07:56:25;;;;;;;44.00;20.83;;;11.90;99.90;;;;;;4139043;28;20224;-95
2023/04/29 08:01:22;;;;;;;34.13;20.13;;;12.30;99.90;;;;;;4235891;22;20242;-96
2023/04/29 08:04:03;;;;;;;39.28;20.50;;;12.30;99.90;;;;;;4163574;28;20185;-96
2023/04/29 08:06:22;;;;;;;40.90;21.13;;;12.20;99.90;;;;;;4171587;28;20149;-96
2023/04/29 08:54:31;;;;;;;;;;;;;;;;;;;;;
2023/04/29 09:00:36;;;;;;;34.03;17.80;;;13.70;99.90;;;;;;4175850;28;20655;-94
2023/04/29 09:03:21;;;;;;;34.33;19.45;;;13.10;99.90;;;;;;4159284;28;20181;-94
2023/04/29 09:05:58;;;;;;;28.50;17.08;;;14.00;99.90;;;;;;4158866;28;20181;-95
2023/04/29 09:08:38;;;;;;;33.60;17.63;;;13.80;99.90;;;;;;4155502;28;20247;-94
2023/04/29 09:11:02;;;;;;;26.67;16.80;;;14.00;99.90;;;;;;4173887;28;20648;-95
2023/04/29 09:13:51;;;;;;;28.02;16.92;;;14.00;99.90;;;;;;4158839;28;20211;-93
2023/04/29 09:16:19;;;;;;;33.22;17.65;;;14.00;99.90;;;;;;4227404;22;20243;-94
2023/04/29 09:18:54;;;;;;;28.90;17.05;;;14.30;99.90;;;;;;4172697;28;20641;-94
2023/04/29 09:21:30;;;;;;;32.05;17.52;;;14.50;99.90;;;;;;4171752;28;20196;-94
2023/04/29 09:23:57;;;;;;;32.05;18.65;;;14.60;99.90;;;;;;4157453;28;20189;-96
2023/04/29 09:26:09;;;;;;;26.75;17.45;;;15.20;99.90;;;;;;4171577;28;20172;-94
2023/04/29 09:29:15;;;;;;;27.85;16.85;;;15.40;99.90;;;;;;4169172;28;20180;-96
2023/04/29 09:31:59;;;;;;;27.20;16.70;;;14.40;99.90;;;;;;4096339;28;20227;-94
2023/04/29 09:35:00;;;;;;;29.15;16.65;;;14.10;99.90;;;;;;4189410;28;20187;-94
2023/04/29 09:37:43;;;;;;;;;;;;;;;;;;;;;
2023/04/29 09:40:08;;;;;;;32.58;17.92;;;14.90;99.90;;;;;;4138607;28;20178;-96
2023/04/29 09:42:46;;;;;;;30.65;17.30;;;14.90;99.90;;;;;;4173592;28;20184;-96
2023/04/29 09:45:48;;;;;;;24.55;16.58;;;14.40;99.90;;;;;;4166155;28;20211;-95
2023/04/29 09:48:24;;;;;;;27.90;16.27;;;14.40;99.90;;;;;;4109401;28;20191;-96
2023/04/29 09:51:06;;;;;;;26.85;16.63;;;13.80;99.90;;;;;;4171433;28;20207;-95
2023/04/29 09:53:30;;;;;;;30.48;17.33;;;13.90;99.90;;;;;;4174755;28;20176;-92
2023/04/29 09:56:05;;;;;;;31.27;17.63;;;13.90;99.90;;;;;;4164129;28;20228;-96
2023/04/29 09:58:43;;;;;;;28.30;17.38;;;14.20;99.90;;;;;;4170393;28;20179;-95
2023/04/29 10:01:26;;;;;;;27.45;17.13;;;14.80;99.90;;;;;;4156216;28;20213;-95
2023/04/29 10:03:42;;;;;;;32.08;18.05;;;15.00;99.90;;;;;;4149212;28;20255;-94
2023/04/29 10:05:54;;;;;;;33.45;18.83;;;15.10;99.90;;;;;;4153017;28;20184;-96
2023/04/29 10:08:00;;;;;;;29.25;18.35;;;14.80;99.90;;;;;;4153821;28;20188;-95
2023/04/29 10:10:15;;;;;;;27.17;17.80;;;14.40;99.90;;;;;;4173400;28;20171;-96
2023/04/29 10:12:50;;;;;;;31.02;17.42;;;14.40;99.90;;;;;;4154443;28;20244;-95
2023/04/29 10:17:55;;;;;;;;;;;;;;;;;;;;;
2023/04/29 10:22:58;;;;;;;24.58;15.73;;;15.10;99.90;;;;;;4171239;28;20203;-96
2023/04/29 10:25:31;;;;;;;28.02;15.93;;;15.40;99.90;;;;;;4166741;28;20261;-94
2023/04/29 10:31:12;;;;;;;22.27;15.52;;;15.60;99.90;;;;;;4152765;28;20182;-95
2023/04/29 10:33:34;;;;;;;23.52;14.63;;;15.60;99.90;;;;;;4163428;28;20208;-96
2023/04/29 10:35:48;;;;;;;20.95;14.27;;;15.30;99.90;;;;;;4155000;28;20609;-95
2023/04/29 10:38:20;;;;;;;25.50;15.32;;;14.70;99.90;;;;;;4152517;28;20161;-94
2023/04/29 10:40:35;;;;;;;25.13;15.05;;;14.40;99.90;;;;;;4173103;28;20183;-94
2023/04/29 10:42:53;;;;;;;28.90;15.57;;;14.20;99.90;;;;;;4166432;28;20173;-95
2023/04/29 10:45:17;;;;;;;25.42;14.20;;;14.30;99.90;;;;;;4150742;28;20188;-94
2023/04/29 10:47:27;;;;;;;22.77;14.00;;;14.80;99.90;;;;;;4149113;28;20177;-95
2023/04/29 10:50:05;;;;;;;20.83;13.80;;;14.90;99.90;;;;;;4154100;28;20220;-94
2023/04/29 10:52:20;;;;;;;20.10;13.50;;;15.10;99.90;;;;;;4132454;28;20205;-94
2023/04/29 10:54:24;;;;;;;20.27;12.90;;;15.20;99.90;;;;;;4151539;28;20247;-94
2023/04/29 10:57:03;;;;;;;21.15;13.38;;;15.70;99.90;;;;;;4171121;28;20204;-93
2023/04/29 10:59:29;;;;;;;20.98;13.82;;;15.90;99.90;;;;;;4101442;28;20194;-96
2023/04/29 11:01:50;;;;;;;21.27;13.40;;;15.90;99.90;;;;;;4125383;28;20182;-94
2023/04/29 11:03:58;;;;;;;19.65;13.18;;;16.10;99.90;;;;;;4133956;28;20688;-95
2023/04/29 11:06:08;;;;;;;21.55;12.80;;;16.10;99.90;;;;;;4117760;28;20662;-94
2023/04/29 11:08:23;;;;;;;20.10;13.82;;;15.50;99.90;;;;;;4137124;28;20196;-96
2023/04/29 11:10:36;;;;;;;20.20;14.13;;;15.00;99.90;;;;;;4153833;28;20216;-95
2023/04/29 11:12:57;;;;;;;22.48;14.73;;;15.10;99.90;;;;;;4136510;28;20169;-95
2023/04/29 11:15:03;;;;;;;26.33;16.00;;;14.80;99.90;;;;;;4135497;28;20240;-95
2023/04/29 11:17:11;;;;;;;23.45;15.30;;;14.90;99.90;;;;;;4134582;28;20205;-96
2023/04/29 11:19:14;;;;;;;21.95;14.77;;;14.70;99.90;;;;;;4117891;28;20415;-94
2023/04/29 11:21:15;;;;;;;23.15;15.02;;;15.00;99.90;;;;;;4134149;28;20601;-95
2023/04/29 11:23:18;;;;;;;27.40;15.32;;;15.20;99.90;;;;;;4119724;28;20285;-94
2023/04/29 11:25:25;;;;;;;23.42;14.95;;;15.30;99.90;;;;;;4132566;28;20182;-96
2023/04/29 11:27:29;;;;;;;25.45;15.88;;;15.30;99.90;;;;;;4133351;28;20174;-95
2023/04/29 11:29:32;;;;;;;28.80;16.50;;;15.00;99.90;;;;;;4135126;28;20272;-96
2023/04/29 11:31:33;;;;;;;22.90;15.23;;;14.70;99.90;;;;;;4164966;28;20271;-95
2023/04/29 11:33:34;;;;;;;23.67;16.77;;;14.70;99.90;;;;;;4152364;28;20275;-95
2023/04/29 11:35:41;;;;;;;25.98;15.32;;;14.80;99.90;;;;;;4151940;28;20212;-96
2023/04/29 11:37:44;;;;;;;25.45;15.50;;;15.10;99.90;;;;;;4168316;28;20242;-96
2023/04/29 11:39:45;;;;;;;23.17;15.20;;;15.20;99.90;;;;;;4152403;28;20275;-94
2023/04/29 11:41:48;;;;;;;21.27;15.07;;;15.30;99.90;;;;;;4151864;28;20510;-95
2023/04/29 11:43:59;;;;;;;20.65;15.77;;;15.70;99.90;;;;;;4154309;28;20204;-96
2023/04/29 11:46:12;;;;;;;24.65;15.05;;;15.90;99.90;;;;;;4153117;28;20180;-96
2023/04/29 11:48:23;;;;;;;19.02;14.82;;;16.00;99.90;;;;;;4154258;28;20533;-96
2023/04/29 11:50:23;;;;;;;18.95;14.55;;;15.90;99.90;;;;;;4168592;28;20239;-94
2023/04/29 11:52:24;;;;;;;21.33;14.80;;;16.10;99.90;;;;;;4151838;28;20169;-96
2023/04/29 11:54:29;;;;;;;18.42;13.70;;;16.50;99.90;;;;;;4167690;28;20188;-95
2023/04/29 11:56:30;;;;;;;21.20;13.15;;;16.70;99.90;;;;;;4151530;28;20212;-94
2023/04/29 11:58:36;;;;;;;21.05;13.80;;;16.80;99.90;;;;;;4152139;28;20175;-94
2023/04/29 12:00:37;;;;;;;22.08;14.15;;;16.70;99.90;;;;;;4151212;28;20187;-95
2023/04/29 12:02:41;;;;;;;21.30;13.63;;;16.60;99.90;;;;;;4171216;28;20168;-96
2023/04/29 12:04:51;;;;;;;21.02;13.65;;;16.60;99.90;;;;;;4156191;28;20188;-94
2023/04/29 12:10:29;;;;;;;19.30;13.00;;;16.40;99.90;;;;;;4177355;28;20176;-96
2023/04/29 12:12:45;;;;;;;22.33;13.73;;;16.60;99.90;;;;;;4152383;28;20176;-96
2023/04/29 12:14:48;;;;;;;18.40;12.95;;;16.80;99.90;;;;;;4154887;28;20168;-94
2023/04/29 12:16:50;;;;;;;17.35;12.43;;;16.90;99.90;;;;;;4151945;28;20188;-94
2023/04/29 12:18:52;;;;;;;19.20;13.55;;;16.70;99.90;;;;;;4150614;28;20185;-95
2023/04/29 12:20:57;;;;;;;19.77;14.13;;;16.70;99.90;;;;;;4150398;28;20195;-94
2023/04/29 12:23:10;;;;;;;21.45;14.15;;;17.00;99.90;;;;;;4150375;28;20593;-95
2023/04/29 12:25:11;;;;;;;18.42;12.80;;;17.10;99.90;;;;;;4151018;28;20180;-94
2023/04/29 12:27:12;;;;;;;17.60;12.93;;;16.90;99.90;;;;;;4168835;28;20168;-92
2023/04/29 12:29:13;;;;;;;19.65;13.90;;;16.40;99.90;;;;;;4167967;28;20191;-95
2023/04/29 12:31:16;;;;;;;21.80;14.10;;;16.50;99.90;;;;;;4152406;28;20165;-95
2023/04/29 12:33:25;;;;;;;21.38;13.52;;;16.60;99.90;;;;;;4167021;28;20200;-94
2023/04/29 12:35:26;;;;;;;21.42;14.02;;;16.20;99.90;;;;;;4150808;28;20264;-95
2023/04/29 12:37:32;;;;;;;18.65;13.82;;;15.90;99.90;;;;;;4151083;28;20680;-95
2023/04/29 12:39:42;;;;;;;20.73;12.95;;;15.70;99.90;;;;;;4151419;28;20530;-95
2023/04/29 12:41:44;;;;;;;20.55;13.25;;;15.50;99.90;;;;;;4150159;28;20164;-96
2023/04/29 12:43:49;;;;;;;20.83;14.27;;;15.40;99.90;;;;;;4151313;28;20216;-96
2023/04/29 12:46:02;;;;;;;18.23;13.13;;;15.20;99.90;;;;;;4152516;28;20173;-96
2023/04/29 12:48:03;;;;;;;17.67;12.82;;;15.40;99.90;;;;;;4150017;28;20176;-96
2023/04/29 12:50:06;;;;;;;17.80;13.52;;;15.70;99.90;;;;;;4151611;28;20184;-96
2023/04/29 12:52:16;;;;;;;20.85;13.18;;;15.80;99.90;;;;;;4166170;28;20168;-96
2023/04/29 12:54:17;;;;;;;17.88;13.43;;;15.80;99.90;;;;;;4167428;28;20196;-95
2023/04/29 12:56:21;;;;;;;20.40;13.30;;;15.90;99.90;;;;;;4151109;28;20201;-96
2023/04/29 12:58:22;;;;;;;20.15;13.40;;;15.80;99.90;;;;;;4152058;28;20177;-96
2023/04/29 13:00:26;;;;;;;19.02;13.10;;;15.90;99.90;;;;;;4169787;28;20174;-94
2023/04/29 13:02:30;;;;;;;19.02;12.77;;;16.20;99.90;;;;;;4186158;28;20160;-96
2023/04/29 13:08:00;;;;;;;19.77;13.25;;;16.30;99.90;;;;;;4148380;28;20186;-94
2023/04/29 13:10:21;;;;;;;;;;;;;;;;;;;;;
2023/04/29 13:12:27;;;;;;;18.33;12.82;;;16.60;99.90;;;;;;4161402;28;20178;-95
2023/04/29 13:15:46;;;;;;;26.20;13.75;;;16.40;99.90;;;;;;4166991;28;20180;-95
2023/04/29 13:18:16;;;;;;;22.58;13.23;;;16.10;99.90;;;;;;4154279;28;20556;-94
2023/04/29 13:24:47;;;;;;;17.55;11.73;;;16.70;99.90;;;;;;4105751;28;20284;-96
2023/04/29 13:27:22;;;;;;;15.50;11.10;;;17.20;99.90;;;;;;4119952;28;20194;-95
2023/04/29 13:29:31;;;;;;;24.88;11.90;;;16.70;99.90;;;;;;4119988;28;20591;-93
2023/04/29 13:31:31;;;;;;;19.42;12.32;;;17.30;99.90;;;;;;4133589;28;20185;-94
2023/04/29 13:34:00;;;;;;;13.80;11.55;;;17.80;99.90;;;;;;4132686;28;20265;-95
2023/04/29 13:36:10;;;;;;;16.08;12.27;;;18.10;99.90;;;;;;4116380;28;20229;-95
2023/04/29 13:38:16;;;;;;;21.60;12.20;;;18.40;99.90;;;;;;4133288;28;20193;-95
2023/04/29 13:41:27;;;;;;;15.45;10.95;;;18.40;99.90;;;;;;4117489;28;20182;-96
2023/04/29 13:43:35;;;;;;;17.85;12.85;;;18.00;99.90;;;;;;4150283;28;20197;-95
2023/04/29 13:45:37;;;;;;;20.00;12.50;;;18.30;99.90;;;;;;4149205;28;20211;-94
2023/04/29 13:47:37;;;;;;;16.42;11.63;;;18.50;99.90;;;;;;4149551;28;20204;-95
2023/04/29 13:49:59;;;;;;;16.15;11.65;;;18.20;99.90;;;;;;4165575;28;20168;-94
2023/04/29 13:52:07;;;;;;;17.67;10.75;;;18.10;99.90;;;;;;4150783;28;20201;-94
2023/04/29 13:54:21;;;;;;;19.38;12.40;;;17.70;99.90;;;;;;4165654;28;20200;-96
2023/04/29 13:56:24;;;;;;;20.55;11.85;;;17.90;99.90;;;;;;4149095;28;20236;-94
2023/04/29 13:58:25;;;;;;;18.38;12.50;;;17.70;99.90;;;;;;4148948;28;20177;-94
2023/04/29 14:00:26;;;;;;;16.75;12.57;;;17.60;99.90;;;;;;4166219;28;20187;-95
2023/04/29 14:02:27;;;;;;;16.48;11.70;;;17.50;99.90;;;;;;4151115;28;20169;-94
2023/04/29 14:04:28;;;;;;;32.08;11.32;;;17.30;99.90;;;;;;4148251;28;20212;-92
2023/04/29 14:06:31;;;;;;;16.75;11.10;;;16.70;99.90;;;;;;4149688;28;20177;-94
2023/04/29 14:08:32;;;;;;;16.27;11.40;;;17.10;99.90;;;;;;4148959;28;20184;-94
2023/04/29 14:10:33;;;;;;;17.42;11.85;;;17.20;99.90;;;;;;4149318;28;20271;-91
2023/04/29 14:12:34;;;;;;;14.85;11.77;;;17.60;99.90;;;;;;4154440;28;20188;-93
2023/04/29 14:14:43;;;;;;;14.07;10.93;;;17.70;99.90;;;;;;4177065;28;20207;-92
2023/04/29 14:17:00;;;;;;;14.32;10.43;;;17.80;99.90;;;;;;4171405;28;20231;-93
2023/04/29 14:19:01;;;;;;;18.38;11.50;;;17.40;99.90;;;;;;4156314;28;20280;-93
2023/04/29 14:21:02;;;;;;;16.83;11.85;;;17.20;99.90;;;;;;4138760;28;20212;-96
2023/04/29 14:23:03;;;;;;;17.55;12.18;;;17.10;99.90;;;;;;4153886;28;20192;-96
2023/04/29 14:25:04;;;;;;;19.58;12.23;;;17.40;99.90;;;;;;4157344;28;20170;-96